Terminal Aerodrome Forecast
Issued by NWS Atlanta, GA

Home | Current Version | Previous Version | Text Only | Print | Product List | Glossary On
Versions: 1 2 3 4 5 6 7 8 9 10 11 12 13 14 15 16 17 18 19 20 21 22 23 24 25 26 27 28 29 30 31 32 33 34 35
000
FTUS42 KFFC 221135
TAFATL
TAF
KATL 221135Z 2212/2318 10005KT P6SM BKN200 OVC250
     FM221500 13008KT P6SM BKN025
     FM221800 16010KT P6SM VCSH FEW006 OVC008
     FM222200 17010KT 5SM -SHRA FEW005 OVC007 PROB30 2300/2304
      21012G22KT 4SM TSRA OVC008CB
     FM230600 22011KT 6SM BR OVC015
     FM230900 27010KT P6SM BKN050
     FM231200 28006KT P6SM FEW250=

USA.gov is the U.S. government's official web portal to all federal, state and local government web resources and services.